Time;durP1;ratioP1;P1;durP2;ratioP2;P2;SDS_P1;SDS_P2;PMS_P1;PMS_P2;Temp;Humidity;BMP_temperature;BMP_pressure;BME280_temperature;BME280_humidity;BME280_pressure;Samples;Min_cycle;Max_cycle;Signal;HPM_P1;HPM_P2
2022/04/14 00:01:21;;;;;;;66.30;28.08;;;;;;;;;;5053459;28;20033;-73
2022/04/14 00:03:47;;;;;;;60.97;27.30;;;;;;;;;;5053613;28;20044;-73
2022/04/14 00:06:13;;;;;;;62.90;26.75;;;;;;;;;;5053949;28;20025;-73
2022/04/14 00:08:39;;;;;;;59.50;27.75;;;;;;;;;;5053830;28;20040;-73
2022/04/14 00:11:05;;;;;;;56.92;26.30;;;;;;;;;;5053560;28;20057;-73
2022/04/14 00:13:32;;;;;;;62.10;27.83;;;;;;;;;;5057299;28;20025;-73
2022/04/14 00:15:58;;;;;;;61.05;27.15;;;;;;;;;;5073700;28;20025;-73
2022/04/14 00:18:24;;;;;;;65.30;27.67;;;;;;;;;;5073335;28;20439;-73
2022/04/14 00:20:50;;;;;;;58.65;27.23;;;;;;;;;;5073580;28;20056;-73
2022/04/14 00:23:16;;;;;;;64.88;27.73;;;;;;;;;;5073221;28;20024;-73
2022/04/14 00:25:42;;;;;;;56.47;27.52;;;;;;;;;;5073309;28;20039;-73
2022/04/14 00:28:08;;;;;;;61.53;28.17;;;;;;;;;;5073489;28;20032;-73
2022/04/14 00:30:34;;;;;;;61.42;28.38;;;;;;;;;;5073358;28;20027;-73
2022/04/14 00:33:01;;;;;;;59.47;28.30;;;;;;;;;;5073064;28;20035;-73
2022/04/14 00:35:27;;;;;;;56.17;27.27;;;;;;;;;;5073265;28;20029;-73
2022/04/14 00:37:53;;;;;;;61.25;27.58;;;;;;;;;;5073137;28;20480;-73
2022/04/14 00:40:19;;;;;;;59.17;27.17;;;;;;;;;;5073259;28;20040;-73
2022/04/14 00:42:46;;;;;;;61.10;28.58;;;;;;;;;;5057239;28;20021;-73
2022/04/14 00:45:12;;;;;;;77.40;32.05;;;;;;;;;;5052983;28;20115;-73
2022/04/14 00:47:38;;;;;;;58.20;26.77;;;;;;;;;;5052955;28;20096;-73
2022/04/14 00:50:05;;;;;;;65.45;29.33;;;;;;;;;;5052897;28;20074;-73
2022/04/14 00:52:31;;;;;;;54.75;26.33;;;;;;;;;;5053003;28;20467;-73
2022/04/14 00:54:57;;;;;;;61.22;27.77;;;;;;;;;;5052949;28;20433;-73
2022/04/14 00:57:23;;;;;;;59.83;29.00;;;;;;;;;;5052776;28;20087;-73
2022/04/14 00:59:49;;;;;;;61.60;28.88;;;;;;;;;;5052984;28;20077;-73
2022/04/14 01:02:16;;;;;;;56.85;27.33;;;;;;;;;;5052919;28;20021;-73
2022/04/14 01:04:42;;;;;;;62.78;26.90;;;;;;;;;;5052669;28;20029;-73
2022/04/14 01:07:08;;;;;;;67.82;30.38;;;;;;;;;;5052616;28;20021;-73
2022/04/14 01:09:36;;;;;;;86.10;31.98;;;;;;;;;;5052602;28;20013;-73
2022/04/14 01:12:03;;;;;;;60.25;26.17;;;;;;;;;;5052386;28;20432;-73
2022/04/14 01:14:36;;;;;;;57.95;27.30;;;;;;;;;;5052389;28;20499;-73
2022/04/14 01:17:04;;;;;;;64.30;28.85;;;;;;;;;;5052558;28;20024;-73
2022/04/14 01:19:31;;;;;;;57.17;28.15;;;;;;;;;;5055699;28;20033;-73
2022/04/14 01:22:30;;;;;;;57.28;27.02;;;;;;;;;;5072428;28;20036;-73
2022/04/14 01:24:57;;;;;;;62.20;28.77;;;;;;;;;;4971134;28;20093;-73
2022/04/14 01:27:23;;;;;;;63.63;27.88;;;;;;;;;;4971458;28;20039;-73
2022/04/14 01:29:53;;;;;;;61.25;28.08;;;;;;;;;;4971738;28;20420;-73
2022/04/14 01:32:20;;;;;;;60.92;28.05;;;;;;;;;;4971548;28;20102;-73
2022/04/14 01:34:46;;;;;;;75.55;31.92;;;;;;;;;;4955244;28;20489;-73
2022/04/14 01:37:12;;;;;;;71.75;30.92;;;;;;;;;;4971435;28;20457;-73
2022/04/14 01:39:39;;;;;;;64.53;30.17;;;;;;;;;;4971437;28;20034;-73
2022/04/14 01:42:05;;;;;;;79.38;31.25;;;;;;;;;;4971518;28;20492;-73
2022/04/14 01:44:31;;;;;;;67.20;29.90;;;;;;;;;;4971573;28;20164;-73
2022/04/14 01:46:57;;;;;;;60.92;27.73;;;;;;;;;;4971608;28;20043;-73
2022/04/14 01:49:23;;;;;;;61.60;28.42;;;;;;;;;;4971585;28;20023;-73
2022/04/14 01:51:49;;;;;;;68.50;29.02;;;;;;;;;;4971747;28;20030;-73
2022/04/14 01:54:16;;;;;;;66.20;30.98;;;;;;;;;;4971562;28;20371;-73
2022/04/14 01:56:42;;;;;;;64.82;28.85;;;;;;;;;;4971392;28;20504;-73
2022/04/14 01:59:08;;;;;;;68.15;29.70;;;;;;;;;;4971450;28;20390;-73
2022/04/14 02:01:34;;;;;;;62.75;27.90;;;;;;;;;;5067420;28;20371;-73
2022/04/14 02:04:02;;;;;;;58.95;27.73;;;;;;;;;;5071963;28;20386;-73
2022/04/14 02:06:28;;;;;;;63.50;28.88;;;;;;;;;;5072068;28;20020;-73
2022/04/14 02:08:54;;;;;;;64.38;28.02;;;;;;;;;;5072184;28;20108;-73
2022/04/14 02:11:20;;;;;;;71.10;31.42;;;;;;;;;;5071666;28;20490;-73
2022/04/14 02:13:46;;;;;;;67.65;27.83;;;;;;;;;;5066489;28;20127;-73
2022/04/14 02:16:12;;;;;;;58.60;28.65;;;;;;;;;;5052179;28;20037;-73
2022/04/14 02:18:39;;;;;;;64.00;29.08;;;;;;;;;;5051850;28;20040;-73
2022/04/14 02:21:05;;;;;;;67.68;30.95;;;;;;;;;;5051916;28;20037;-73
2022/04/14 02:23:31;;;;;;;65.22;29.90;;;;;;;;;;5051600;28;20420;-73
2022/04/14 02:25:57;;;;;;;87.47;34.42;;;;;;;;;;5054079;28;20383;-73
2022/04/14 02:28:23;;;;;;;109.82;37.13;;;;;;;;;;5055480;28;20029;-73
2022/04/14 02:30:49;;;;;;;67.18;31.15;;;;;;;;;;5055720;28;20036;-73
2022/04/14 02:33:15;;;;;;;75.22;31.60;;;;;;;;;;5055741;28;20107;-73
2022/04/14 02:35:41;;;;;;;71.88;30.15;;;;;;;;;;5055608;28;20047;-73
2022/04/14 02:38:07;;;;;;;67.47;30.48;;;;;;;;;;5055628;28;20475;-73
2022/04/14 02:40:33;;;;;;;68.00;29.10;;;;;;;;;;5055293;28;20036;-73
2022/04/14 02:42:59;;;;;;;61.90;29.00;;;;;;;;;;5055332;28;20021;-73
2022/04/14 02:45:26;;;;;;;72.72;31.33;;;;;;;;;;5055328;28;20025;-73
2022/04/14 02:47:52;;;;;;;70.18;30.35;;;;;;;;;;5055221;28;20025;-73
2022/04/14 02:50:20;;;;;;;68.97;30.73;;;;;;;;;;5055064;28;20309;-74
2022/04/14 02:52:46;;;;;;;70.15;29.00;;;;;;;;;;5055051;28;20431;-73
2022/04/14 02:55:12;;;;;;;64.80;29.58;;;;;;;;;;5055318;28;20068;-73
2022/04/14 02:57:39;;;;;;;68.35;30.20;;;;;;;;;;5055106;28;20482;-73
2022/04/14 03:00:06;;;;;;;71.50;31.35;;;;;;;;;;5054962;28;20467;-73
2022/04/14 03:02:32;;;;;;;85.40;33.80;;;;;;;;;;5055160;28;20037;-73
2022/04/14 03:04:58;;;;;;;1127.80;82.68;;;;;;;;;;5054820;28;20028;-73
2022/04/14 03:07:25;;;;;;;681.72;60.72;;;;;;;;;;5055041;28;20063;-73
2022/04/14 03:09:51;;;;;;;129.90;35.47;;;;;;;;;;5054891;28;20078;-73
2022/04/14 03:12:17;;;;;;;109.65;36.15;;;;;;;;;;5054521;28;20045;-73
2022/04/14 03:14:43;;;;;;;211.85;43.65;;;;;;;;;;5054705;28;20036;-73
2022/04/14 03:17:09;;;;;;;132.77;40.72;;;;;;;;;;5054513;28;20122;-73
2022/04/14 03:19:36;;;;;;;219.10;46.60;;;;;;;;;;5058338;28;20035;-73
2022/04/14 03:22:02;;;;;;;293.23;43.80;;;;;;;;;;5074491;28;20020;-73
2022/04/14 03:24:28;;;;;;;329.70;50.03;;;;;;;;;;5074422;28;20028;-73
2022/04/14 03:26:54;;;;;;;196.02;42.45;;;;;;;;;;5074362;28;20047;-73
2022/04/14 03:29:20;;;;;;;88.57;38.55;;;;;;;;;;5074579;28;20024;-73
2022/04/14 03:31:46;;;;;;;157.20;38.40;;;;;;;;;;5074501;28;20025;-73
2022/04/14 03:34:12;;;;;;;74.18;37.40;;;;;;;;;;5074373;28;20032;-73
2022/04/14 03:36:38;;;;;;;84.22;36.92;;;;;;;;;;5073053;28;20093;-73
2022/04/14 03:39:05;;;;;;;72.55;35.45;;;;;;;;;;5074471;28;20025;-73
2022/04/14 03:41:31;;;;;;;666.17;61.20;;;;;;;;;;5074261;28;20024;-73
2022/04/14 03:43:59;;;;;;;209.10;40.10;;;;;;;;;;5074269;28;20032;-73
2022/04/14 03:46:26;;;;;;;942.10;75.28;;;;;;;;;;5074468;28;20021;-73
2022/04/14 03:48:52;;;;;;;141.48;41.88;;;;;;;;;;5074439;28;20031;-73
2022/04/14 03:51:18;;;;;;;541.60;61.33;;;;;;;;;;5074039;28;20017;-73
2022/04/14 03:53:44;;;;;;;224.27;43.08;;;;;;;;;;5074062;28;20102;-73
2022/04/14 03:56:11;;;;;;;119.50;37.83;;;;;;;;;;5073857;28;20036;-73
2022/04/14 03:58:37;;;;;;;405.90;52.28;;;;;;;;;;5074118;28;20543;-73
2022/04/14 04:01:03;;;;;;;556.30;69.75;;;;;;;;;;5073636;28;20028;-73
2022/04/14 04:03:29;;;;;;;602.63;76.35;;;;;;;;;;5074189;28;20439;-73
2022/04/14 04:05:55;;;;;;;1091.32;115.13;;;;;;;;;;5073875;28;20020;-73
2022/04/14 04:08:22;;;;;;;822.70;71.47;;;;;;;;;;5073847;28;20427;-73
2022/04/14 04:10:48;;;;;;;96.75;40.25;;;;;;;;;;5073505;28;20071;-73
2022/04/14 04:13:14;;;;;;;198.13;44.25;;;;;;;;;;5055345;28;20043;-73
2022/04/14 04:15:40;;;;;;;610.75;63.00;;;;;;;;;;5073555;28;20205;-73
2022/04/14 04:18:07;;;;;;;120.47;43.03;;;;;;;;;;5073490;28;20048;-73
2022/04/14 04:20:33;;;;;;;489.67;56.83;;;;;;;;;;5073554;28;20108;-73
2022/04/14 04:22:59;;;;;;;125.70;38.88;;;;;;;;;;5073695;28;20025;-73
2022/04/14 04:25:25;;;;;;;112.93;38.53;;;;;;;;;;5073321;28;20119;-73
2022/04/14 04:27:51;;;;;;;91.75;36.85;;;;;;;;;;5073310;28;20052;-73
2022/04/14 04:30:17;;;;;;;100.13;35.28;;;;;;;;;;5073011;28;20017;-73
2022/04/14 04:32:43;;;;;;;108.07;37.58;;;;;;;;;;5073214;28;20027;-73
2022/04/14 04:35:10;;;;;;;95.57;36.28;;;;;;;;;;5073309;28;20021;-73
2022/04/14 04:37:36;;;;;;;120.50;39.15;;;;;;;;;;5072871;28;20518;-73
2022/04/14 04:40:02;;;;;;;526.95;63.47;;;;;;;;;;5072981;28;20110;-73
2022/04/14 04:42:28;;;;;;;124.03;35.97;;;;;;;;;;5059183;28;20021;-73
2022/04/14 04:44:54;;;;;;;75.82;33.40;;;;;;;;;;5052762;28;20439;-73
2022/04/14 04:47:20;;;;;;;68.20;33.20;;;;;;;;;;5053102;28;20107;-73
2022/04/14 04:49:47;;;;;;;171.43;36.03;;;;;;;;;;5052628;28;20021;-73
2022/04/14 04:52:13;;;;;;;104.32;33.08;;;;;;;;;;5052724;28;20104;-73
2022/04/14 04:54:39;;;;;;;150.38;40.58;;;;;;;;;;5052940;28;20051;-73
2022/04/14 04:57:06;;;;;;;443.45;54.08;;;;;;;;;;5052579;28;20464;-73
2022/04/14 04:59:33;;;;;;;69.95;32.80;;;;;;;;;;5052890;28;20025;-73
2022/04/14 05:01:59;;;;;;;391.08;57.88;;;;;;;;;;5052888;28;20100;-73
2022/04/14 05:04:25;;;;;;;118.00;35.72;;;;;;;;;;5052566;28;20029;-73
2022/04/14 05:06:51;;;;;;;182.30;41.85;;;;;;;;;;5052676;28;20096;-73
2022/04/14 05:09:18;;;;;;;680.28;70.35;;;;;;;;;;5052347;28;20436;-73
2022/04/14 05:11:44;;;;;;;76.80;31.98;;;;;;;;;;5052374;28;20052;-73
2022/04/14 05:14:10;;;;;;;54.15;29.58;;;;;;;;;;5052616;28;20029;-73
2022/04/14 05:16:37;;;;;;;57.17;29.83;;;;;;;;;;5052248;28;20063;-73
2022/04/14 05:19:03;;;;;;;378.55;50.50;;;;;;;;;;5052375;28;20079;-73
2022/04/14 05:21:29;;;;;;;66.28;34.15;;;;;;;;;;5071898;28;20029;-73
2022/04/14 05:23:55;;;;;;;109.35;39.95;;;;;;;;;;5072052;28;20040;-73
2022/04/14 05:26:21;;;;;;;56.95;33.55;;;;;;;;;;5072231;28;20032;-73
2022/04/14 05:28:47;;;;;;;46.08;29.80;;;;;;;;;;5054173;28;20382;-73
2022/04/14 05:31:14;;;;;;;89.88;34.45;;;;;;;;;;5054451;28;20131;-73
2022/04/14 05:33:40;;;;;;;50.90;30.83;;;;;;;;;;5072352;28;20025;-73
2022/04/14 05:36:06;;;;;;;72.18;34.13;;;;;;;;;;5072269;28;20020;-73
2022/04/14 05:38:32;;;;;;;188.68;45.33;;;;;;;;;;5072138;28;20059;-73
2022/04/14 05:40:58;;;;;;;108.70;39.03;;;;;;;;;;5070709;28;20059;-73
2022/04/14 05:43:27;;;;;;;53.60;31.88;;;;;;;;;;5052018;28;20025;-73
2022/04/14 05:45:54;;;;;;;47.95;30.02;;;;;;;;;;5052252;28;20537;-73
2022/04/14 05:48:20;;;;;;;99.35;35.97;;;;;;;;;;5052316;28;20159;-73
2022/04/14 05:50:47;;;;;;;88.38;38.03;;;;;;;;;;5052125;28;20020;-73
2022/04/14 05:53:13;;;;;;;45.42;27.75;;;;;;;;;;5052091;28;20029;-73
2022/04/14 05:55:41;;;;;;;97.45;37.88;;;;;;;;;;5052158;28;20086;-73
2022/04/14 05:58:08;;;;;;;60.53;33.08;;;;;;;;;;5052004;28;20418;-73
2022/04/14 06:00:35;;;;;;;82.32;37.05;;;;;;;;;;5053685;28;20100;-73
2022/04/14 06:03:02;;;;;;;51.20;30.75;;;;;;;;;;5055897;28;20025;-73
2022/04/14 06:05:28;;;;;;;58.13;31.23;;;;;;;;;;5056048;28;20033;-73
2022/04/14 06:07:54;;;;;;;42.60;28.92;;;;;;;;;;5055946;28;20083;-73
2022/04/14 06:10:21;;;;;;;54.88;29.50;;;;;;;;;;5055621;28;20136;-73
2022/04/14 06:12:47;;;;;;;44.00;26.58;;;;;;;;;;5037671;28;20183;-73
2022/04/14 06:15:13;;;;;;;50.97;29.98;;;;;;;;;;5073081;28;20100;-73
2022/04/14 06:17:40;;;;;;;42.30;27.35;;;;;;;;;;5075813;28;20020;-73
2022/04/14 06:20:06;;;;;;;48.03;28.40;;;;;;;;;;5075483;28;20024;-73
2022/04/14 06:22:37;;;;;;;49.33;27.75;;;;;;;;;;5075458;28;20527;-73
2022/04/14 06:25:03;;;;;;;54.92;29.45;;;;;;;;;;5075446;28;20036;-73
2022/04/14 06:27:29;;;;;;;51.55;29.20;;;;;;;;;;5075492;28;20481;-73
2022/04/14 06:29:55;;;;;;;40.00;26.30;;;;;;;;;;5075458;28;20032;-73
2022/04/14 06:32:21;;;;;;;44.92;26.00;;;;;;;;;;5075333;28;20029;-73
2022/04/14 06:34:47;;;;;;;52.38;27.85;;;;;;;;;;5075336;28;20481;-73
2022/04/14 06:37:13;;;;;;;42.92;25.38;;;;;;;;;;5075312;28;20111;-73
2022/04/14 06:39:39;;;;;;;40.17;24.38;;;;;;;;;;5075342;28;20032;-73
2022/04/14 06:42:06;;;;;;;44.35;25.67;;;;;;;;;;5064587;28;20393;-73
2022/04/14 06:44:32;;;;;;;39.53;23.55;;;;;;;;;;5053834;28;20383;-73
2022/04/14 06:46:58;;;;;;;38.78;22.98;;;;;;;;;;5055117;28;20029;-73
2022/04/14 06:49:24;;;;;;;40.58;24.58;;;;;;;;;;5055164;28;20036;-73
2022/04/14 06:51:50;;;;;;;44.70;26.88;;;;;;;;;;5055203;28;20029;-73
2022/04/14 06:54:17;;;;;;;35.78;23.90;;;;;;;;;;5055248;28;20032;-73
2022/04/14 06:56:43;;;;;;;39.75;25.33;;;;;;;;;;5054893;28;20025;-73
2022/04/14 06:59:09;;;;;;;36.28;21.80;;;;;;;;;;5055023;28;20029;-73
2022/04/14 07:01:35;;;;;;;33.30;21.00;;;;;;;;;;5055018;28;20025;-73
2022/04/14 07:04:01;;;;;;;33.70;19.40;;;;;;;;;;5054895;28;20029;-73
2022/04/14 07:06:27;;;;;;;29.50;19.25;;;;;;;;;;5054734;28;20025;-73
2022/04/14 07:08:53;;;;;;;37.58;19.05;;;;;;;;;;5053533;28;20340;-73
2022/04/14 07:11:20;;;;;;;31.00;18.55;;;;;;;;;;5054497;28;20415;-73
2022/04/14 07:13:46;;;;;;;25.67;15.70;;;;;;;;;;5059851;28;20048;-73
2022/04/14 07:16:12;;;;;;;26.92;16.00;;;;;;;;;;5074731;28;20424;-73
2022/04/14 07:18:40;;;;;;;27.27;15.70;;;;;;;;;;5074695;28;20029;-73
2022/04/14 07:21:06;;;;;;;29.35;14.90;;;;;;;;;;5074701;28;20025;-73
2022/04/14 07:23:32;;;;;;;26.00;15.77;;;;;;;;;;5074862;28;20028;-73
2022/04/14 07:25:58;;;;;;;27.75;15.35;;;;;;;;;;5074399;28;20027;-73
2022/04/14 07:28:24;;;;;;;33.50;16.48;;;;;;;;;;5074587;28;20031;-73
2022/04/14 07:30:50;;;;;;;25.85;14.80;;;;;;;;;;5074240;28;20028;-73
2022/04/14 07:33:17;;;;;;;25.52;13.68;;;;;;;;;;5074415;28;20031;-73
2022/04/14 07:35:43;;;;;;;27.17;13.45;;;;;;;;;;5074395;28;20056;-73
2022/04/14 07:38:09;;;;;;;26.35;13.88;;;;;;;;;;5074421;28;20030;-73
2022/04/14 07:40:35;;;;;;;23.48;12.70;;;;;;;;;;5074334;28;20031;-73
2022/04/14 07:43:01;;;;;;;30.77;14.05;;;;;;;;;;5074055;28;20024;-74
2022/04/14 07:45:28;;;;;;;26.60;13.25;;;;;;;;;;5074020;28;20024;-73
2022/04/14 07:47:54;;;;;;;23.63;13.25;;;;;;;;;;5074261;28;20482;-74
2022/04/14 07:50:21;;;;;;;23.40;12.70;;;;;;;;;;5073972;28;20039;-73
2022/04/14 07:52:51;;;;;;;27.67;13.07;;;;;;;;;;5074075;28;20013;-73
2022/04/14 07:55:18;;;;;;;21.80;11.45;;;;;;;;;;5074319;28;20021;-73
2022/04/14 07:57:44;;;;;;;24.02;12.10;;;;;;;;;;5073865;28;20068;-73
2022/04/14 08:00:10;;;;;;;19.88;11.90;;;;;;;;;;5073915;28;20485;-73
2022/04/14 08:02:45;;;;;;;25.38;12.60;;;;;;;;;;5073870;28;20479;-73
2022/04/14 08:05:11;;;;;;;20.98;12.05;;;;;;;;;;5073706;28;20032;-73
2022/04/14 08:07:37;;;;;;;21.55;11.80;;;;;;;;;;5073764;28;20027;-73
2022/04/14 08:10:03;;;;;;;23.20;11.32;;;;;;;;;;5073617;28;20021;-73
2022/04/14 08:12:29;;;;;;;20.02;10.85;;;;;;;;;;5073493;28;20048;-73
2022/04/14 08:14:55;;;;;;;18.98;10.38;;;;;;;;;;5073409;28;20036;-73
2022/04/14 08:17:21;;;;;;;17.23;10.18;;;;;;;;;;5073404;28;20462;-73
2022/04/14 08:19:48;;;;;;;15.25;9.48;;;;;;;;;;5073533;28;20020;-73
2022/04/14 08:22:14;;;;;;;21.00;10.45;;;;;;;;;;5073062;28;20028;-73
2022/04/14 08:24:40;;;;;;;22.00;10.80;;;;;;;;;;5073162;28;20032;-73
2022/04/14 08:27:06;;;;;;;24.50;11.75;;;;;;;;;;5055278;28;20025;-73
2022/04/14 08:29:32;;;;;;;22.20;11.38;;;;;;;;;;5055294;28;20406;-73
2022/04/14 08:31:58;;;;;;;20.52;11.27;;;;;;;;;;5073307;28;20379;-73
2022/04/14 08:34:25;;;;;;;22.15;12.40;;;;;;;;;;5073351;28;20112;-73
2022/04/14 08:36:52;;;;;;;23.65;12.43;;;;;;;;;;5072963;28;20036;-73
2022/04/14 08:39:18;;;;;;;17.98;11.27;;;;;;;;;;5072902;28;20023;-73
2022/04/14 08:41:45;;;;;;;19.73;10.63;;;;;;;;;;5065461;28;20471;-73
2022/04/14 08:44:13;;;;;;;21.63;11.32;;;;;;;;;;5051642;28;20459;-73
2022/04/14 08:46:40;;;;;;;22.50;10.80;;;;;;;;;;5053147;28;20075;-73
2022/04/14 08:49:07;;;;;;;18.23;9.50;;;;;;;;;;5052732;28;20028;-73
2022/04/14 08:51:36;;;;;;;20.80;9.40;;;;;;;;;;5052660;28;20020;-73
2022/04/14 08:54:02;;;;;;;17.90;9.25;;;;;;;;;;5052766;28;20502;-73
2022/04/14 08:56:28;;;;;;;26.35;13.02;;;;;;;;;;5052617;28;20040;-73
2022/04/14 08:58:55;;;;;;;20.20;10.45;;;;;;;;;;5052649;28;20193;-73
2022/04/14 09:01:22;;;;;;;20.10;10.07;;;;;;;;;;5052660;28;20029;-73
2022/04/14 09:03:48;;;;;;;19.20;10.75;;;;;;;;;;5052452;28;20033;-73
2022/04/14 09:06:14;;;;;;;22.60;10.85;;;;;;;;;;5052323;28;20021;-73
2022/04/14 09:08:40;;;;;;;19.17;9.82;;;;;;;;;;5052421;28;20096;-73
2022/04/14 09:11:08;;;;;;;19.65;10.02;;;;;;;;;;5052197;28;20033;-73
2022/04/14 09:13:37;;;;;;;19.55;9.38;;;;;;;;;;5051946;28;20036;-74
2022/04/14 09:16:03;;;;;;;16.70;9.00;;;;;;;;;;5052199;28;20029;-73
2022/04/14 09:18:30;;;;;;;16.08;9.20;;;;;;;;;;5052195;28;20068;-73
2022/04/14 09:21:03;;;;;;;18.08;10.45;;;;;;;;;;5066834;28;20028;-73
2022/04/14 09:23:29;;;;;;;21.98;10.10;;;;;;;;;;5072134;28;20056;-73
2022/04/14 09:26:06;;;;;;;19.15;10.10;;;;;;;;;;5072017;28;20028;-73
2022/04/14 09:28:32;;;;;;;21.08;9.80;;;;;;;;;;5072321;28;20017;-73
2022/04/14 09:31:24;;;;;;;18.17;9.50;;;;;;;;;;5072187;28;20371;-73
2022/04/14 09:33:50;;;;;;;20.10;9.75;;;;;;;;;;5068842;28;20040;-73
2022/04/14 09:36:16;;;;;;;16.27;9.30;;;;;;;;;;5072193;28;20036;-73
2022/04/14 09:38:49;;;;;;;17.42;10.20;;;;;;;;;;5072146;28;20033;-73
2022/04/14 09:41:37;;;;;;;15.60;8.57;;;;;;;;;;5071832;28;20101;-73
2022/04/14 09:44:08;;;;;;;18.63;9.63;;;;;;;;;;5071978;28;20032;-73
2022/04/14 09:46:34;;;;;;;12.90;6.93;;;;;;;;;;5071890;28;20012;-73
2022/04/14 09:49:10;;;;;;;13.27;6.93;;;;;;;;;;5071833;28;20021;-73
2022/04/14 09:51:40;;;;;;;11.82;7.50;;;;;;;;;;5071971;28;20029;-73
2022/04/14 09:54:11;;;;;;;13.80;7.63;;;;;;;;;;5071895;28;20020;-73
2022/04/14 09:56:39;;;;;;;13.73;7.25;;;;;;;;;;5071855;28;20032;-73
2022/04/14 09:59:07;;;;;;;13.25;7.43;;;;;;;;;;5053688;28;20379;-73
2022/04/14 10:01:34;;;;;;;14.63;7.00;;;;;;;;;;5071778;28;20031;-73
2022/04/14 10:04:00;;;;;;;14.95;7.50;;;;;;;;;;5071796;28;20028;-73
2022/04/14 10:06:26;;;;;;;14.15;8.15;;;;;;;;;;5071689;28;20028;-73
2022/04/14 10:08:52;;;;;;;18.15;7.88;;;;;;;;;;5071802;28;20025;-73
2022/04/14 10:11:38;;;;;;;14.73;7.20;;;;;;;;;;5071760;28;20074;-73
2022/04/14 10:14:11;;;;;;;11.00;6.85;;;;;;;;;;5063591;28;20049;-73
2022/04/14 10:16:38;;;;;;;12.43;7.05;;;;;;;;;;5051824;28;20036;-73
2022/04/14 10:19:05;;;;;;;11.57;6.25;;;;;;;;;;5051797;28;20079;-73
2022/04/14 10:21:31;;;;;;;11.80;5.50;;;;;;;;;;5050095;28;20459;-74
2022/04/14 10:23:57;;;;;;;11.82;5.75;;;;;;;;;;5051734;28;20110;-73
2022/04/14 10:26:23;;;;;;;11.25;6.28;;;;;;;;;;5051356;28;20037;-73
2022/04/14 10:28:50;;;;;;;10.57;5.95;;;;;;;;;;5051717;28;20036;-73
2022/04/14 10:31:17;;;;;;;17.08;6.68;;;;;;;;;;5061516;28;20021;-73
2022/04/14 10:33:45;;;;;;;10.85;5.97;;;;;;;;;;5071574;28;20031;-73
2022/04/14 10:36:11;;;;;;;11.10;6.25;;;;;;;;;;5071509;28;20368;-73
2022/04/14 10:38:38;;;;;;;11.95;6.38;;;;;;;;;;5071560;28;20082;-73
2022/04/14 10:41:15;;;;;;;10.52;6.20;;;;;;;;;;5069410;28;20028;-73
2022/04/14 10:43:42;;;;;;;12.57;6.25;;;;;;;;;;5051551;28;20025;-73
2022/04/14 10:46:08;;;;;;;15.77;7.13;;;;;;;;;;5052268;28;20043;-73
2022/04/14 10:48:35;;;;;;;12.80;6.45;;;;;;;;;;5054966;28;20025;-73
2022/04/14 10:51:20;;;;;;;11.10;6.53;;;;;;;;;;5055133;28;20479;-73
2022/04/14 10:53:55;;;;;;;15.52;6.38;;;;;;;;;;5053738;28;20032;-73
2022/04/14 10:56:44;;;;;;;11.65;6.22;;;;;;;;;;5054992;28;20055;-73
2022/04/14 10:59:11;;;;;;;13.43;6.32;;;;;;;;;;5036880;28;20471;-73
2022/04/14 11:01:57;;;;;;;10.65;6.30;;;;;;;;;;5054716;28;20032;-73
2022/04/14 11:04:26;;;;;;;11.98;6.68;;;;;;;;;;5054676;28;20025;-74
2022/04/14 11:06:54;;;;;;;13.13;6.35;;;;;;;;;;5054697;28;20060;-73
2022/04/14 11:09:42;;;;;;;13.27;7.40;;;;;;;;;;5054600;28;20028;-73
2022/04/14 11:12:12;;;;;;;15.82;7.65;;;;;;;;;;5054367;28;20044;-73
2022/04/14 11:14:45;;;;;;;15.45;7.40;;;;;;;;;;5067157;28;20421;-73
2022/04/14 11:17:30;;;;;;;13.00;7.45;;;;;;;;;;5074433;28;20472;-73
2022/04/14 11:19:56;;;;;;;12.38;7.75;;;;;;;;;;5074419;28;20032;-73
2022/04/14 11:22:22;;;;;;;16.27;8.25;;;;;;;;;;5074337;28;20032;-73
2022/04/14 11:24:48;;;;;;;12.23;7.60;;;;;;;;;;5074773;28;20056;-73
2022/04/14 11:27:18;;;;;;;15.02;7.10;;;;;;;;;;5074257;28;20032;-73
2022/04/14 11:29:45;;;;;;;11.52;7.00;;;;;;;;;;5074302;28;20020;-73
2022/04/14 11:32:11;;;;;;;10.00;6.47;;;;;;;;;;5074138;28;20040;-74
2022/04/14 11:34:40;;;;;;;14.88;6.70;;;;;;;;;;5074129;28;20029;-73
2022/04/14 11:37:26;;;;;;;12.32;6.00;;;;;;;;;;5074106;28;20108;-73
2022/04/14 11:40:10;;;;;;;9.63;4.93;;;;;;;;;;5073931;28;20032;-73
2022/04/14 11:42:36;;;;;;;8.40;4.20;;;;;;;;;;5059270;28;20044;-73
2022/04/14 11:45:04;;;;;;;11.68;4.93;;;;;;;;;;5053678;28;20021;-73
2022/04/14 11:47:30;;;;;;;8.98;4.18;;;;;;;;;;5053936;28;20074;-73
2022/04/14 11:49:56;;;;;;;11.95;4.03;;;;;;;;;;5053818;28;20159;-73
2022/04/14 11:52:22;;;;;;;8.13;3.80;;;;;;;;;;5053757;28;20067;-73
2022/04/14 11:54:49;;;;;;;6.20;4.10;;;;;;;;;;5053583;28;20020;-74
2022/04/14 11:57:31;;;;;;;8.15;3.85;;;;;;;;;;5052773;28;20021;-73
2022/04/14 12:00:09;;;;;;;7.72;3.60;;;;;;;;;;5053574;28;20383;-74
2022/04/14 12:02:36;;;;;;;7.25;3.65;;;;;;;;;;5053682;28;20037;-73
2022/04/14 12:05:02;;;;;;;5.82;3.38;;;;;;;;;;5053482;28;20036;-73
2022/04/14 12:07:32;;;;;;;5.43;3.17;;;;;;;;;;5053418;28;20070;-73
2022/04/14 12:09:59;;;;;;;5.68;2.30;;;;;;;;;;5053406;28;20032;-73
2022/04/14 12:12:25;;;;;;;3.80;2.50;;;;;;;;;;5053243;28;20473;-73
2022/04/14 12:14:52;;;;;;;7.60;3.85;;;;;;;;;;5067643;28;20024;-73
2022/04/14 12:17:23;;;;;;;5.28;3.08;;;;;;;;;;5073227;28;20030;-73
2022/04/14 12:19:53;;;;;;;9.88;3.95;;;;;;;;;;5051702;28;20025;-73
2022/04/14 12:22:20;;;;;;;5.10;3.22;;;;;;;;;;5053216;28;20360;-73
2022/04/14 12:24:46;;;;;;;6.05;3.35;;;;;;;;;;5053035;28;20432;-73
2022/04/14 12:27:34;;;;;;;6.80;3.00;;;;;;;;;;5052852;28;20548;-73
2022/04/14 12:30:11;;;;;;;8.13;4.15;;;;;;;;;;5051604;28;20033;-73
2022/04/14 12:32:37;;;;;;;15.90;4.20;;;;;;;;;;5052833;28;20017;-73
2022/04/14 12:35:08;;;;;;;6.88;4.20;;;;;;;;;;5052786;28;20066;-73
2022/04/14 12:37:35;;;;;;;10.23;3.92;;;;;;;;;;5052678;28;20104;-76
2022/04/14 12:40:21;;;;;;;7.45;3.38;;;;;;;;;;5052849;28;20036;-74
2022/04/14 12:42:48;;;;;;;5.65;3.13;;;;;;;;;;5052774;28;20079;-75
2022/04/14 12:45:15;;;;;;;7.72;3.50;;;;;;;;;;5052439;28;20033;-73
2022/04/14 12:47:42;;;;;;;7.10;3.33;;;;;;;;;;5052500;28;20063;-73
2022/04/14 12:50:08;;;;;;;4.53;3.40;;;;;;;;;;5052737;28;20028;-73
2022/04/14 12:52:34;;;;;;;7.35;3.72;;;;;;;;;;5052445;28;20028;-73
2022/04/14 12:55:00;;;;;;;5.90;4.00;;;;;;;;;;5052461;28;20539;-73
2022/04/14 12:57:28;;;;;;;9.52;4.40;;;;;;;;;;5052403;28;20493;-73
2022/04/14 13:00:07;;;;;;;7.88;3.80;;;;;;;;;;5052424;28;20414;-73
2022/04/14 13:02:33;;;;;;;5.30;3.40;;;;;;;;;;5052387;28;20021;-73
2022/04/14 13:05:07;;;;;;;7.32;4.32;;;;;;;;;;5034195;28;20029;-73
2022/04/14 13:07:47;;;;;;;8.00;5.00;;;;;;;;;;5052202;28;20079;-73
2022/04/14 13:10:13;;;;;;;8.00;5.07;;;;;;;;;;5052040;28;20021;-73
2022/04/14 13:12:40;;;;;;;8.73;5.55;;;;;;;;;;5052120;28;20056;-73
2022/04/14 13:15:07;;;;;;;8.98;5.88;;;;;;;;;;5068423;28;20090;-73
2022/04/14 13:17:36;;;;;;;7.93;5.07;;;;;;;;;;5072103;28;20024;-73
2022/04/14 13:20:32;;;;;;;9.88;4.95;;;;;;;;;;5071996;28;20031;-73
2022/04/14 13:22:58;;;;;;;9.68;5.57;;;;;;;;;;5071963;28;20459;-73
2022/04/14 13:25:25;;;;;;;7.82;5.90;;;;;;;;;;5071831;28;20363;-73
2022/04/14 13:27:51;;;;;;;9.32;6.15;;;;;;;;;;5071862;28;20485;-73
2022/04/14 13:30:17;;;;;;;10.23;7.07;;;;;;;;;;5071867;28;20020;-74
2022/04/14 13:32:44;;;;;;;9.63;6.75;;;;;;;;;;5072064;28;20065;-73
2022/04/14 13:35:10;;;;;;;12.07;6.65;;;;;;;;;;5072028;28;20069;-73
2022/04/14 13:37:36;;;;;;;9.57;7.25;;;;;;;;;;5071912;28;20025;-73
2022/04/14 13:40:04;;;;;;;10.48;6.80;;;;;;;;;;5071689;28;20043;-73
2022/04/14 13:42:31;;;;;;;11.20;7.50;;;;;;;;;;5057915;28;20106;-73
2022/04/14 13:44:57;;;;;;;9.10;6.38;;;;;;;;;;5051618;28;20447;-74
2022/04/14 13:47:23;;;;;;;7.57;5.63;;;;;;;;;;5051446;28;20025;-73
2022/04/14 13:49:49;;;;;;;10.50;6.78;;;;;;;;;;5051642;28;20021;-74
2022/04/14 13:52:15;;;;;;;10.32;7.28;;;;;;;;;;5051640;28;20017;-73
2022/04/14 13:54:42;;;;;;;12.13;7.07;;;;;;;;;;5051514;28;20064;-73
2022/04/14 13:57:08;;;;;;;10.60;6.90;;;;;;;;;;5051450;28;20033;-73
2022/04/14 13:59:34;;;;;;;10.10;5.88;;;;;;;;;;5051532;28;20036;-73
2022/04/14 14:02:03;;;;;;;7.05;4.70;;;;;;;;;;5051593;28;20029;-73
2022/04/14 14:04:29;;;;;;;5.55;4.63;;;;;;;;;;5051478;28;20036;-73
2022/04/14 14:06:55;;;;;;;9.90;5.00;;;;;;;;;;5051532;28;20025;-73
2022/04/14 14:09:21;;;;;;;18.77;6.40;;;;;;;;;;5051400;28;20020;-73
2022/04/14 14:11:47;;;;;;;8.50;5.18;;;;;;;;;;5051258;28;20523;-73
2022/04/14 14:14:13;;;;;;;9.55;5.70;;;;;;;;;;5060521;28;20093;-72
2022/04/14 14:16:39;;;;;;;6.45;4.65;;;;;;;;;;5071459;28;20021;-73
2022/04/14 14:19:05;;;;;;;8.55;5.07;;;;;;;;;;5053169;28;20021;-73
2022/04/14 14:21:31;;;;;;;6.82;4.50;;;;;;;;;;5051403;28;20372;-73
2022/04/14 14:23:59;;;;;;;8.18;4.40;;;;;;;;;;5055211;28;20029;-73